Time;durP1;ratioP1;P1;durP2;ratioP2;P2;SDS_P1;SDS_P2;PMS_P1;PMS_P2;Temp;Humidity;BMP_temperature;BMP_pressure;BME280_temperature;BME280_humidity;BME280_pressure;Samples;Min_cycle;Max_cycle;Signal;HPM_P1;HPM_P2
2022/06/06 00:00:09;;;;;;;15.18;12.43;;;18.90;99.90;;;;;;4957979;28;93248;-73
2022/06/06 00:02:38;;;;;;;13.40;12.13;;;18.90;99.90;;;;;;4956181;28;92391;-73
2022/06/06 00:05:06;;;;;;;15.32;13.93;;;18.90;99.90;;;;;;4957641;28;93181;-72
2022/06/06 00:07:33;;;;;;;14.43;13.23;;;18.90;99.90;;;;;;4956876;28;95899;-73
2022/06/06 00:10:00;;;;;;;15.73;14.23;;;18.90;99.90;;;;;;4956211;28;92440;-73
2022/06/06 00:12:27;;;;;;;15.65;14.35;;;18.90;99.90;;;;;;4957779;28;92838;-73
2022/06/06 00:14:55;;;;;;;15.70;14.40;;;18.90;99.90;;;;;;4955367;28;94938;-73
2022/06/06 00:17:21;;;;;;;15.55;14.05;;;18.90;99.90;;;;;;4956993;28;108298;-73
2022/06/06 00:19:48;;;;;;;15.95;14.45;;;18.90;99.90;;;;;;4957759;28;92502;-73
2022/06/06 00:22:15;;;;;;;16.00;14.60;;;18.80;99.90;;;;;;4955974;28;92549;-72
2022/06/06 00:24:42;;;;;;;14.90;13.52;;;18.80;99.90;;;;;;4957286;28;93347;-72
2022/06/06 00:27:09;;;;;;;14.27;12.98;;;18.70;99.90;;;;;;4957099;28;92981;-73
2022/06/06 00:29:36;;;;;;;13.35;12.15;;;18.60;99.90;;;;;;4957630;28;93175;-73
2022/06/06 00:34:53;;;;;;;14.15;12.85;;;18.60;99.90;;;;;;4942302;28;95886;-73
2022/06/06 00:37:29;;;;;;;14.85;13.43;;;18.50;99.90;;;;;;4957351;28;92941;-72
2022/06/06 00:39:56;;;;;;;13.07;11.82;;;18.50;99.90;;;;;;4954855;28;94965;-73
2022/06/06 00:42:33;;;;;;;11.82;10.73;;;18.40;99.90;;;;;;4957221;28;93856;-72
2022/06/06 00:45:24;;;;;;;10.77;9.68;;;18.50;99.90;;;;;;4956012;28;95690;-72
2022/06/06 00:48:10;;;;;;;8.77;7.65;;;18.40;99.90;;;;;;4956188;28;96353;-73
2022/06/06 00:50:40;;;;;;;9.15;8.25;;;18.30;99.90;;;;;;4940425;28;92522;-72
2022/06/06 00:53:09;;;;;;;8.82;8.02;;;18.30;99.90;;;;;;4940136;28;92596;-72
2022/06/06 00:55:41;;;;;;;12.50;9.82;;;18.20;99.90;;;;;;4956281;28;95772;-72
2022/06/06 00:58:15;;;;;;;9.60;8.80;;;18.20;99.90;;;;;;4958019;28;92964;-73
2022/06/06 01:00:43;;;;;;;9.38;8.63;;;18.10;99.90;;;;;;4956512;28;92454;-72
2022/06/06 01:03:15;;;;;;;8.65;7.85;;;18.10;99.90;;;;;;4957593;28;92428;-72
2022/06/06 01:05:45;;;;;;;9.05;8.15;;;18.10;99.90;;;;;;4971352;28;95731;-72
2022/06/06 01:08:13;;;;;;;8.35;7.63;;;18.10;99.90;;;;;;4955996;28;95437;-72
2022/06/06 01:10:41;;;;;;;9.98;9.18;;;18.00;99.90;;;;;;4957636;28;92481;-72
2022/06/06 01:13:11;;;;;;;7.82;7.13;;;18.00;99.90;;;;;;4957549;28;92400;-73
2022/06/06 01:16:10;;;;;;;7.85;7.05;;;18.00;99.90;;;;;;4956940;28;93267;-72
2022/06/06 01:19:08;;;;;;;8.30;7.50;;;18.00;99.90;;;;;;4939597;28;95694;-72
2022/06/06 01:22:03;;;;;;;7.25;6.65;;;18.00;99.90;;;;;;4971694;28;95823;-72
2022/06/06 01:24:58;;;;;;;8.10;7.38;;;18.00;99.90;;;;;;4956165;28;91721;-72
2022/06/06 01:27:34;;;;;;;8.07;7.47;;;17.90;99.90;;;;;;4957263;28;93364;-72
2022/06/06 01:30:07;;;;;;;8.55;7.85;;;17.90;99.90;;;;;;4955735;28;98986;-72
2022/06/06 01:32:40;;;;;;;7.28;6.68;;;17.90;99.90;;;;;;4954492;28;94835;-72
2022/06/06 01:35:08;;;;;;;5.43;5.05;;;17.80;99.90;;;;;;4972244;28;92394;-72
2022/06/06 01:37:40;;;;;;;6.75;6.25;;;17.80;99.90;;;;;;4956828;28;92488;-72
2022/06/06 01:40:13;;;;;;;7.72;6.38;;;17.80;99.90;;;;;;4971817;28;93151;-72
2022/06/06 01:43:02;;;;;;;7.43;6.85;;;17.80;99.90;;;;;;4955338;28;92459;-72
2022/06/06 01:45:56;;;;;;;6.88;6.38;;;17.90;99.90;;;;;;4956913;28;92455;-72
2022/06/06 01:48:26;;;;;;;7.07;6.57;;;17.80;99.90;;;;;;4971563;28;93238;-73
2022/06/06 01:50:53;;;;;;;6.40;5.90;;;17.80;99.90;;;;;;4957321;28;92899;-72
2022/06/06 01:53:23;;;;;;;6.78;6.28;;;17.70;99.90;;;;;;4954665;28;92589;-72
2022/06/06 01:55:52;;;;;;;6.68;6.18;;;17.80;99.90;;;;;;4955359;28;92558;-72
2022/06/06 01:58:30;;;;;;;5.88;5.28;;;17.80;99.90;;;;;;4955506;28;95745;-72
2022/06/06 02:00:57;;;;;;;7.68;7.07;;;17.80;99.90;;;;;;4955131;28;95429;-72
2022/06/06 02:03:24;;;;;;;6.57;6.05;;;17.70;99.90;;;;;;4955666;28;92401;-72
2022/06/06 02:05:51;;;;;;;6.38;5.82;;;17.70;99.90;;;;;;4971554;28;92603;-72
2022/06/06 02:08:19;;;;;;;8.18;7.38;;;17.70;99.90;;;;;;4956542;28;93098;-72
2022/06/06 02:10:47;;;;;;;6.47;5.88;;;17.70;99.90;;;;;;4954786;28;95570;-72
2022/06/06 02:13:14;;;;;;;6.55;5.95;;;17.70;99.90;;;;;;4956674;28;92538;-72
2022/06/06 02:15:42;;;;;;;7.13;6.53;;;17.70;99.90;;;;;;4955202;28;91804;-72
2022/06/06 02:18:09;;;;;;;6.82;6.22;;;17.60;99.90;;;;;;4956268;28;93204;-72
2022/06/06 02:20:36;;;;;;;6.70;6.10;;;17.60;99.90;;;;;;4954856;28;93542;-72
2022/06/06 02:23:03;;;;;;;8.68;7.88;;;17.60;99.90;;;;;;4953880;28;94825;-72
2022/06/06 02:25:32;;;;;;;7.90;7.30;;;17.60;99.90;;;;;;4956254;28;92455;-72
2022/06/06 02:27:59;;;;;;;8.70;7.97;;;17.60;99.90;;;;;;4955028;28;95933;-72
2022/06/06 02:30:29;;;;;;;9.00;8.30;;;17.60;99.90;;;;;;4954665;28;95590;-72
2022/06/06 02:32:57;;;;;;;9.95;9.05;;;17.60;99.90;;;;;;4955108;28;92527;-72
2022/06/06 02:35:28;;;;;;;8.43;7.72;;;17.60;99.90;;;;;;4956210;28;92552;-72
2022/06/06 02:37:56;;;;;;;7.72;7.13;;;17.60;99.90;;;;;;4954731;28;93259;-72
2022/06/06 02:40:25;;;;;;;9.27;8.43;;;17.50;99.90;;;;;;4955989;28;93121;-72
2022/06/06 02:42:52;;;;;;;9.77;8.60;;;17.50;99.90;;;;;;4970936;28;92424;-72
2022/06/06 02:45:19;;;;;;;9.27;8.35;;;17.50;99.90;;;;;;4954869;28;92578;-72
2022/06/06 02:47:49;;;;;;;9.20;8.30;;;17.50;99.90;;;;;;4952995;28;98327;-72
2022/06/06 02:50:19;;;;;;;8.32;7.53;;;17.40;99.90;;;;;;4955903;28;95277;-72
2022/06/06 02:52:46;;;;;;;9.32;8.43;;;17.40;99.90;;;;;;4955321;28;92555;-72
2022/06/06 02:55:14;;;;;;;8.93;8.23;;;17.40;99.90;;;;;;4954098;28;93320;-72
2022/06/06 02:57:44;;;;;;;9.10;8.20;;;17.40;99.90;;;;;;4954456;28;93340;-72
2022/06/06 03:00:15;;;;;;;9.45;8.55;;;17.30;99.90;;;;;;4970530;28;92845;-73
2022/06/06 03:02:42;;;;;;;9.07;8.27;;;17.30;99.90;;;;;;4970992;28;92385;-72
2022/06/06 03:05:09;;;;;;;8.20;7.50;;;17.30;99.90;;;;;;4956076;28;91790;-72
2022/06/06 03:08:01;;;;;;;8.23;7.60;;;17.30;99.90;;;;;;4955602;28;93415;-72
2022/06/06 03:10:35;;;;;;;7.25;6.63;;;17.30;99.90;;;;;;4955922;28;93124;-72
2022/06/06 03:13:24;;;;;;;7.25;6.53;;;17.20;99.90;;;;;;4954921;28;94759;-72
2022/06/06 03:22:27;;;;;;;8.23;6.95;;;17.20;99.90;;;;;;4954074;28;93032;-73
2022/06/06 03:25:05;;;;;;;6.32;5.72;;;17.20;99.90;;;;;;4954172;28;93312;-72
2022/06/06 03:27:39;;;;;;;7.38;6.68;;;17.20;99.90;;;;;;4954308;28;92879;-72
2022/06/06 03:30:29;;;;;;;7.13;6.53;;;17.20;99.90;;;;;;4954440;28;93556;-72
2022/06/06 03:33:16;;;;;;;8.05;7.25;;;17.20;99.90;;;;;;4973615;28;99308;-73
2022/06/06 03:36:09;;;;;;;7.32;6.72;;;17.20;99.90;;;;;;4957490;28;92633;-72
2022/06/06 03:38:39;;;;;;;8.65;7.72;;;17.20;99.90;;;;;;4957611;28;92520;-72
2022/06/06 03:41:26;;;;;;;9.05;8.18;;;17.20;99.90;;;;;;4956194;28;97611;-72
2022/06/06 03:44:14;;;;;;;10.50;9.50;;;17.20;99.90;;;;;;4958672;28;94327;-72
2022/06/06 03:46:59;;;;;;;12.60;11.30;;;17.20;99.90;;;;;;4959226;28;92424;-72
2022/06/06 03:49:41;;;;;;;13.32;12.05;;;17.10;99.90;;;;;;4956914;28;92559;-72
2022/06/06 03:52:48;;;;;;;15.57;13.82;;;17.10;99.90;;;;;;4957803;28;93365;-72
2022/06/06 03:55:39;;;;;;;19.05;16.35;;;17.10;99.90;;;;;;4957956;28;93930;-72
2022/06/06 03:58:08;;;;;;;21.35;17.38;;;17.10;99.90;;;;;;4972755;28;92533;-72
2022/06/06 04:00:35;;;;;;;21.50;17.17;;;17.00;99.90;;;;;;4973363;28;91838;-72
2022/06/06 04:03:05;;;;;;;22.67;17.70;;;17.00;99.90;;;;;;4957515;28;94241;-72
2022/06/06 04:05:39;;;;;;;24.40;18.13;;;17.10;99.90;;;;;;4956496;28;94116;-73
2022/06/06 04:08:08;;;;;;;28.08;19.95;;;17.10;99.90;;;;;;4971394;28;94897;-72
2022/06/06 04:11:02;;;;;;;24.02;17.40;;;17.00;99.90;;;;;;4972846;28;92747;-72
2022/06/06 04:13:41;;;;;;;18.15;14.90;;;17.10;99.90;;;;;;4953946;28;93275;-72
2022/06/06 04:16:15;;;;;;;21.00;16.20;;;17.00;99.90;;;;;;4957836;28;92963;-72
2022/06/06 04:19:05;;;;;;;16.52;13.10;;;16.90;99.90;;;;;;4972997;28;93342;-72
2022/06/06 04:22:16;;;;;;;15.60;13.50;;;17.00;99.90;;;;;;4956048;28;92505;-72
2022/06/06 04:25:18;;;;;;;13.98;11.82;;;17.00;99.90;;;;;;4943323;28;93199;-72
2022/06/06 04:28:02;;;;;;;15.10;11.15;;;16.90;99.90;;;;;;4958019;28;93005;-72
2022/06/06 04:31:00;;;;;;;14.43;10.93;;;16.90;99.90;;;;;;4972574;28;97512;-73
2022/06/06 04:33:51;;;;;;;12.93;10.35;;;16.90;99.90;;;;;;4957583;28;92901;-72
2022/06/06 04:36:43;;;;;;;11.95;8.88;;;16.80;99.90;;;;;;4954984;28;95511;-72
2022/06/06 04:39:20;;;;;;;9.70;8.68;;;16.90;99.90;;;;;;4929138;28;95258;-72
2022/06/06 04:41:54;;;;;;;8.70;7.82;;;16.90;99.90;;;;;;4957833;28;92551;-72
2022/06/06 04:44:41;;;;;;;7.63;6.85;;;17.00;99.90;;;;;;4973114;28;93081;-72
2022/06/06 04:47:29;;;;;;;8.80;6.78;;;17.00;99.90;;;;;;4957556;28;93154;-72
2022/06/06 04:49:57;;;;;;;9.00;6.60;;;17.00;99.90;;;;;;4957680;28;93041;-72
2022/06/06 04:52:25;;;;;;;8.00;6.50;;;17.00;99.90;;;;;;4956283;28;92515;-72
2022/06/06 04:54:54;;;;;;;7.70;6.30;;;17.00;99.90;;;;;;4956688;28;94720;-72
2022/06/06 04:57:22;;;;;;;10.35;9.18;;;17.00;99.90;;;;;;4972608;28;92470;-72
2022/06/06 04:59:51;;;;;;;11.82;8.77;;;17.00;99.90;;;;;;4940327;28;95580;-72
2022/06/06 05:02:21;;;;;;;14.95;11.55;;;17.00;99.90;;;;;;4954924;28;94938;-72
2022/06/06 05:04:48;;;;;;;15.98;10.60;;;17.00;99.90;;;;;;4971580;28;92619;-72
2022/06/06 05:07:38;;;;;;;17.90;12.18;;;16.90;99.90;;;;;;4955462;28;95783;-72
2022/06/06 05:10:11;;;;;;;16.65;12.80;;;17.00;99.90;;;;;;4956942;28;92856;-72
2022/06/06 05:12:57;;;;;;;17.38;12.02;;;16.90;99.90;;;;;;4955689;28;92513;-72
2022/06/06 05:15:29;;;;;;;15.27;10.25;;;16.90;99.90;;;;;;4957021;28;92466;-72
2022/06/06 05:18:05;;;;;;;17.63;12.67;;;16.80;99.90;;;;;;4972041;28;93260;-72
2022/06/06 05:20:38;;;;;;;18.80;12.98;;;16.80;99.90;;;;;;4956007;28;93100;-72
2022/06/06 05:23:24;;;;;;;16.85;10.23;;;16.90;99.90;;;;;;4956809;28;92555;-72
2022/06/06 05:26:55;;;;;;;14.90;10.63;;;16.90;99.90;;;;;;4957074;28;92549;-73
2022/06/06 05:29:49;;;;;;;12.73;9.80;;;16.90;99.90;;;;;;4894629;28;97372;-72
2022/06/06 05:33:01;;;;;;;15.85;11.55;;;16.90;99.90;;;;;;4880457;28;95592;-72
2022/06/06 05:35:45;;;;;;;15.40;11.73;;;16.90;99.90;;;;;;4933575;28;92562;-72
2022/06/06 05:38:30;;;;;;;16.50;10.77;;;17.00;99.90;;;;;;4956249;28;92847;-72
2022/06/06 05:41:28;;;;;;;15.68;11.18;;;17.10;99.90;;;;;;4956506;28;93326;-72
2022/06/06 05:43:57;;;;;;;21.02;14.57;;;17.10;99.90;;;;;;4971634;28;93020;-72
2022/06/06 05:46:50;;;;;;;19.45;12.73;;;17.00;99.90;;;;;;4955849;28;92386;-72
2022/06/06 05:49:32;;;;;;;18.77;12.32;;;17.00;99.90;;;;;;4956965;28;91705;-72
2022/06/06 05:52:23;;;;;;;17.50;12.52;;;17.00;99.90;;;;;;4956570;28;93147;-72
2022/06/06 05:55:09;;;;;;;20.67;12.90;;;17.00;99.90;;;;;;4970479;28;93736;-72
2022/06/06 05:58:08;;;;;;;19.45;13.30;;;17.00;99.90;;;;;;4970256;28;95053;-72
2022/06/06 06:00:54;;;;;;;17.55;11.50;;;17.00;99.90;;;;;;4956448;28;92475;-72
2022/06/06 06:03:45;;;;;;;19.17;12.05;;;17.00;99.90;;;;;;4955903;28;93330;-72
2022/06/06 06:06:30;;;;;;;14.70;11.20;;;17.10;99.90;;;;;;4955774;28;93352;-73
2022/06/06 06:09:26;;;;;;;16.10;10.60;;;17.10;99.90;;;;;;4971418;28;92641;-73
2022/06/06 06:12:15;;;;;;;19.95;12.13;;;17.10;99.90;;;;;;4971208;28;92545;-72
2022/06/06 06:15:26;;;;;;;16.80;11.57;;;17.10;99.90;;;;;;4954498;28;95911;-72
2022/06/06 06:17:54;;;;;;;21.30;12.10;;;17.10;99.90;;;;;;4971203;28;93195;-72
2022/06/06 06:20:28;;;;;;;17.02;13.07;;;17.10;99.90;;;;;;4955553;28;92398;-72
2022/06/06 06:22:56;;;;;;;;;;;17.20;99.90;;;;;;4955022;28;92545;-72
2022/06/06 06:25:24;;;;;;;15.27;11.57;;;17.00;99.90;;;;;;4954518;28;98113;-72
2022/06/06 06:28:02;;;;;;;17.00;12.05;;;17.10;99.90;;;;;;4970398;28;97918;-72
2022/06/06 06:30:38;;;;;;;15.05;12.25;;;17.20;99.90;;;;;;4970817;28;92543;-72
2022/06/06 06:33:27;;;;;;;16.70;12.05;;;17.20;99.90;;;;;;4954923;28;93135;-72
2022/06/06 06:35:59;;;;;;;17.48;13.20;;;17.20;99.90;;;;;;4955835;28;92407;-72
2022/06/06 06:38:41;;;;;;;17.20;11.90;;;17.30;99.90;;;;;;4955357;28;93053;-72
2022/06/06 06:41:26;;;;;;;17.38;12.32;;;17.30;99.90;;;;;;4955863;28;92501;-72
2022/06/06 06:44:09;;;;;;;17.92;13.30;;;17.30;99.90;;;;;;4956265;28;91694;-72
2022/06/06 06:46:48;;;;;;;18.15;13.15;;;17.30;99.90;;;;;;4955528;28;93399;-72
2022/06/06 06:49:41;;;;;;;17.95;12.35;;;17.30;99.90;;;;;;4955393;28;93089;-72
2022/06/06 06:52:35;;;;;;;19.13;12.63;;;17.40;99.90;;;;;;4954590;28;94813;-72
2022/06/06 06:55:05;;;;;;;18.30;12.45;;;17.50;99.90;;;;;;4970663;28;92486;-72
2022/06/06 06:58:05;;;;;;;16.88;11.77;;;17.50;99.90;;;;;;4954776;28;93421;-72
2022/06/06 07:00:41;;;;;;;14.30;9.93;;;17.70;99.90;;;;;;4955167;28;93142;-72
2022/06/06 07:09:14;;;;;;;14.50;10.02;;;18.60;99.90;;;;;;4959206;28;93442;-72
2022/06/06 07:12:01;;;;;;;11.32;7.95;;;18.70;99.90;;;;;;4959161;28;93088;-72
2022/06/06 07:14:54;;;;;;;11.95;9.65;;;18.90;99.90;;;;;;4958197;28;93067;-72
2022/06/06 07:17:23;;;;;;;10.80;7.18;;;19.20;99.80;;;;;;4959057;28;92441;-73
2022/06/06 07:20:01;;;;;;;10.32;7.93;;;19.40;99.40;;;;;;4972807;28;98399;-72
2022/06/06 07:22:59;;;;;;;11.27;8.90;;;19.60;98.90;;;;;;4957210;28;97868;-72
2022/06/06 07:25:24;;;;;;;14.43;9.13;;;19.60;98.50;;;;;;4958811;28;92392;-72
2022/06/06 07:27:51;;;;;;;13.75;8.27;;;19.70;98.50;;;;;;4959275;28;92428;-73
2022/06/06 07:30:21;;;;;;;11.75;9.43;;;19.80;98.40;;;;;;4941187;28;95924;-72
2022/06/06 07:33:07;;;;;;;13.27;8.70;;;19.90;98.00;;;;;;4957582;28;95550;-72
2022/06/06 07:35:41;;;;;;;10.93;9.02;;;20.10;97.90;;;;;;4959118;28;92701;-72
2022/06/06 07:38:20;;;;;;;14.45;9.27;;;20.40;97.90;;;;;;4941652;28;91771;-72
2022/06/06 07:41:25;;;;;;;11.40;9.23;;;20.60;97.50;;;;;;4957198;28;100054;-72
2022/06/06 07:44:02;;;;;;;12.25;9.48;;;21.00;97.00;;;;;;4948177;28;93053;-72
2022/06/06 07:47:01;;;;;;;12.07;8.80;;;21.20;96.80;;;;;;4955959;28;95005;-72
2022/06/06 07:50:06;;;;;;;13.48;8.32;;;21.40;95.80;;;;;;4958715;28;92445;-72
2022/06/06 07:52:52;;;;;;;11.57;8.60;;;21.50;95.30;;;;;;4972644;28;93276;-72
2022/06/06 07:55:31;;;;;;;11.50;8.93;;;21.70;95.20;;;;;;4957030;28;95693;-73
2022/06/06 07:58:30;;;;;;;10.02;8.07;;;21.90;94.60;;;;;;4958784;28;92455;-72
2022/06/06 08:01:41;;;;;;;11.07;8.80;;;22.20;94.00;;;;;;4951603;28;93155;-72
2022/06/06 08:04:31;;;;;;;;;;;22.40;93.60;;;;;;4944557;28;93406;-73
2022/06/06 08:07:26;;;;;;;12.45;9.48;;;22.10;93.00;;;;;;4951972;28;92742;-73
2022/06/06 08:10:07;;;;;;;11.55;8.20;;;22.10;93.40;;;;;;4958819;28;92376;-72
2022/06/06 08:13:11;;;;;;;10.30;8.05;;;22.00;93.50;;;;;;4956871;28;92542;-73
2022/06/06 08:16:15;;;;;;;11.77;9.30;;;22.10;93.60;;;;;;4971914;28;95854;-72
2022/06/06 08:18:51;;;;;;;;;;;22.50;93.00;;;;;;4956309;28;102278;-72
2022/06/06 08:21:41;;;;;;;12.07;9.23;;;22.50;92.80;;;;;;4959630;28;92454;-73
2022/06/06 08:24:34;;;;;;;12.60;9.25;;;23.10;93.10;;;;;;4950641;28;92547;-73
2022/06/06 08:27:24;;;;;;;12.30;10.60;;;23.40;91.30;;;;;;4956721;28;93352;-72
2022/06/06 08:29:51;;;;;;;12.65;11.32;;;23.40;91.00;;;;;;4957567;28;93186;-72
2022/06/06 08:32:18;;;;;;;16.52;11.55;;;23.10;90.90;;;;;;4957234;28;105184;-73
2022/06/06 08:34:47;;;;;;;15.02;10.82;;;22.80;90.90;;;;;;4957562;28;91735;-73
2022/06/06 08:37:29;;;;;;;13.10;10.60;;;22.70;91.30;;;;;;4972427;28;95803;-73
2022/06/06 08:40:04;;;;;;;15.10;9.70;;;23.30;90.80;;;;;;4955990;28;95592;-73
2022/06/06 08:42:49;;;;;;;11.82;10.68;;;24.30;90.10;;;;;;4956546;28;94983;-73
2022/06/06 08:45:22;;;;;;;11.98;10.75;;;25.50;86.90;;;;;;4957531;28;92519;-73
2022/06/06 08:48:10;;;;;;;11.20;8.88;;;26.10;85.90;;;;;;4971917;28;93253;-73
2022/06/06 08:51:11;;;;;;;9.68;8.68;;;27.20;80.70;;;;;;4956432;28;92890;-73
2022/06/06 08:54:00;;;;;;;9.63;8.73;;;28.00;77.70;;;;;;4956082;28;92454;-73
2022/06/06 08:56:44;;;;;;;10.52;8.18;;;27.70;74.10;;;;;;4956076;28;92511;-73
2022/06/06 08:59:32;;;;;;;10.20;9.25;;;27.50;74.10;;;;;;4957880;28;93408;-73
2022/06/06 09:02:10;;;;;;;7.03;6.30;;;27.00;75.10;;;;;;4956430;28;95673;-73
2022/06/06 09:05:04;;;;;;;7.38;6.47;;;26.60;75.70;;;;;;4957697;28;92796;-73
2022/06/06 09:07:56;;;;;;;7.90;5.07;;;26.50;75.80;;;;;;4957602;28;92356;-73
2022/06/06 09:11:00;;;;;;;6.18;5.15;;;26.10;76.20;;;;;;4956418;28;96327;-72
2022/06/06 09:14:05;;;;;;;6.13;5.53;;;25.60;76.60;;;;;;4957402;28;95315;-73
2022/06/06 09:16:59;;;;;;;5.65;5.00;;;25.10;77.50;;;;;;4926429;28;92590;-73
2022/06/06 09:19:48;;;;;;;5.57;5.00;;;24.80;78.30;;;;;;4957694;28;92405;-73
2022/06/06 09:22:33;;;;;;;5.78;4.03;;;24.40;78.50;;;;;;4955730;28;95741;-73
2022/06/06 09:25:36;;;;;;;5.07;3.75;;;24.40;78.50;;;;;;4957265;28;92938;-72
2022/06/06 09:28:11;;;;;;;3.53;2.80;;;24.20;78.50;;;;;;4955689;28;92403;-72
2022/06/06 09:30:44;;;;;;;4.03;2.90;;;24.00;79.10;;;;;;4957266;28;91800;-72
2022/06/06 09:33:17;;;;;;;2.40;2.15;;;24.00;78.90;;;;;;4955833;28;95886;-72
2022/06/06 09:35:48;;;;;;;4.05;2.25;;;24.00;78.70;;;;;;4957062;28;93031;-72
2022/06/06 09:38:24;;;;;;;4.93;3.13;;;24.00;78.20;;;;;;4956180;28;94750;-72
2022/06/06 09:41:12;;;;;;;4.22;3.10;;;24.10;78.40;;;;;;4955561;28;92421;-72
2022/06/06 09:44:22;;;;;;;3.92;3.53;;;24.00;77.70;;;;;;4955555;28;93394;-72
2022/06/06 09:47:17;;;;;;;4.20;2.42;;;24.00;77.90;;;;;;4955425;28;95543;-72
2022/06/06 09:49:50;;;;;;;4.00;2.20;;;24.20;78.40;;;;;;4957071;28;92369;-72
2022/06/06 09:52:33;;;;;;;3.67;3.30;;;24.20;77.20;;;;;;4957205;28;92420;-72
2022/06/06 10:01:39;;;;;;;5.20;2.58;;;24.20;76.10;;;;;;4956790;28;92387;-72
2022/06/06 10:04:18;;;;;;;6.30;3.55;;;24.20;76.40;;;;;;4956987;28;92535;-72
2022/06/06 10:07:14;;;;;;;4.15;2.65;;;23.80;77.80;;;;;;4955125;28;95527;-72
2022/06/06 10:09:53;;;;;;;4.03;2.95;;;23.60;79.80;;;;;;4971246;28;99828;-72
2022/06/06 10:12:26;;;;;;;5.35;3.40;;;23.30;80.50;;;;;;4955335;28;92593;-72
2022/06/06 10:15:06;;;;;;;7.00;3.83;;;23.20;80.90;;;;;;4955071;28;92952;-72
2022/06/06 10:17:58;;;;;;;4.10;2.80;;;23.10;81.10;;;;;;4971465;28;93251;-72
2022/06/06 10:20:31;;;;;;;6.85;3.95;;;23.20;80.60;;;;;;4956652;28;92739;-72
2022/06/06 10:23:24;;;;;;;2.70;2.50;;;23.10;79.90;;;;;;4956305;28;92755;-72
2022/06/06 10:26:27;;;;;;;6.47;3.10;;;23.10;80.10;;;;;;4956643;28;91672;-72
2022/06/06 10:29:14;;;;;;;5.57;2.40;;;23.10;80.30;;;;;;4954322;28;93342;-72
2022/06/06 10:31:49;;;;;;;4.28;2.83;;;23.20;79.50;;;;;;4956310;28;92956;-72
2022/06/06 10:34:28;;;;;;;3.22;2.65;;;23.50;79.30;;;;;;4955164;28;95330;-72
2022/06/06 10:37:17;;;;;;;3.28;2.35;;;23.80;76.60;;;;;;4938515;28;93029;-72
2022/06/06 10:40:07;;;;;;;4.82;2.42;;;23.90;75.80;;;;;;4954452;28;93269;-72
2022/06/06 10:42:58;;;;;;;2.90;1.95;;;23.50;76.60;;;;;;4918305;28;95791;-72
2022/06/06 10:45:42;;;;;;;3.85;2.10;;;23.10;80.20;;;;;;4954750;28;92527;-72
2022/06/06 10:48:12;;;;;;;2.70;2.47;;;22.70;79.70;;;;;;4956485;28;92380;-72
2022/06/06 10:54:11;;;;;;;2.22;1.90;;;22.40;82.40;;;;;;4956084;28;92940;-72
2022/06/06 10:57:06;;;;;;;4.10;3.13;;;22.40;84.20;;;;;;4956101;28;92672;-72
2022/06/06 10:59:49;;;;;;;3.85;3.55;;;22.40;85.80;;;;;;4956176;28;92440;-72
2022/06/06 11:02:50;;;;;;;6.80;4.57;;;22.50;87.00;;;;;;4954747;28;95723;-72
2022/06/06 11:05:29;;;;;;;9.07;3.20;;;22.40;84.30;;;;;;4954234;28;98061;-72
2022/06/06 11:08:02;;;;;;;3.67;3.38;;;22.20;84.50;;;;;;4955595;28;92595;-72
2022/06/06 11:10:28;;;;;;;3.25;1.90;;;22.00;84.20;;;;;;4954859;28;92530;-72
2022/06/06 11:13:11;;;;;;;2.25;1.88;;;22.10;84.90;;;;;;4954086;28;95944;-72
2022/06/06 11:16:01;;;;;;;3.58;3.17;;;22.30;84.10;;;;;;4955987;28;93169;-72
2022/06/06 11:18:40;;;;;;;2.20;2.00;;;22.40;82.70;;;;;;4954460;28;93855;-72
2022/06/06 11:21:39;;;;;;;4.57;2.28;;;22.20;84.90;;;;;;4956008;28;91709;-72
2022/06/06 11:24:25;;;;;;;2.15;1.70;;;22.10;84.90;;;;;;4955512;28;93184;-72
2022/06/06 11:27:10;;;;;;;2.00;1.70;;;22.00;84.30;;;;;;4953926;28;94459;-72
2022/06/06 11:29:58;;;;;;;1.55;1.25;;;21.80;83.10;;;;;;4936721;28;94812;-73
2022/06/06 11:32:53;;;;;;;1.42;1.10;;;21.50;82.90;;;;;;4955660;28;92454;-73
2022/06/06 11:35:28;;;;;;;1.90;1.80;;;21.10;83.10;;;;;;4954144;28;95640;-74
2022/06/06 11:38:13;;;;;;;1.08;0.95;;;20.80;84.50;;;;;;4955282;28;93095;-72
2022/06/06 11:41:18;;;;;;;2.05;1.95;;;20.50;85.30;;;;;;4954291;28;92630;-73
2022/06/06 11:44:06;;;;;;;1.63;1.40;;;20.40;86.60;;;;;;4955547;28;92573;-73
2022/06/06 11:47:11;;;;;;;2.28;2.05;;;20.30;88.10;;;;;;4955340;28;93159;-72
2022/06/06 11:50:19;;;;;;;2.38;2.17;;;20.30;89.00;;;;;;4954366;28;95710;-72
2022/06/06 11:52:46;;;;;;;2.15;1.90;;;20.30;89.70;;;;;;4938513;28;92671;-74
2022/06/06 11:55:25;;;;;;;1.42;1.33;;;20.20;89.40;;;;;;4940978;28;92402;-75
2022/06/06 11:58:19;;;;;;;1.58;1.35;;;20.40;88.60;;;;;;4962146;28;95736;-74
2022/06/06 12:01:14;;;;;;;3.28;2.97;;;20.80;87.70;;;;;;4958449;28;94247;-74
2022/06/06 12:04:22;;;;;;;1.77;1.67;;;21.10;87.00;;;;;;4958804;28;92432;-72
2022/06/06 12:07:28;;;;;;;2.90;2.20;;;21.30;86.90;;;;;;4949480;28;92578;-72
2022/06/06 12:10:21;;;;;;;3.50;3.25;;;21.40;87.00;;;;;;4958175;28;92543;-72
2022/06/06 12:13:09;;;;;;;3.63;3.15;;;21.40;86.60;;;;;;4957399;28;92810;-72
2022/06/06 12:15:39;;;;;;;3.17;2.95;;;21.60;87.20;;;;;;4958494;28;92484;-72
2022/06/06 12:18:20;;;;;;;2.92;2.70;;;21.70;86.60;;;;;;4958533;28;92281;-72
2022/06/06 12:21:30;;;;;;;2.25;2.15;;;21.80;86.20;;;;;;4957021;28;94247;-72
2022/06/06 12:24:12;;;;;;;2.05;1.45;;;22.00;85.70;;;;;;4958023;28;93137;-72
2022/06/06 12:26:51;;;;;;;2.88;2.78;;;22.00;84.80;;;;;;4956946;28;95347;-71
2022/06/06 12:29:48;;;;;;;2.50;1.60;;;22.20;84.20;;;;;;4956905;28;92614;-71
2022/06/06 12:32:28;;;;;;;1.60;1.15;;;22.30;82.50;;;;;;4956708;28;92875;-71
2022/06/06 12:35:08;;;;;;;2.15;1.83;;;22.50;82.20;;;;;;4957916;28;92999;-71
2022/06/06 12:38:05;;;;;;;1.88;1.77;;;22.60;81.90;;;;;;4956591;28;96725;-71
2022/06/06 12:41:03;;;;;;;2.42;1.40;;;22.80;79.70;;;;;;4957033;28;92625;-73
2022/06/06 12:43:45;;;;;;;2.65;2.45;;;22.90;79.80;;;;;;4956311;28;95823;-73
2022/06/06 12:46:24;;;;;;;2.53;1.40;;;23.10;79.40;;;;;;4957866;28;93052;-73
2022/06/06 12:48:57;;;;;;;2.42;2.33;;;23.20;78.00;;;;;;4956536;28;92566;-73
2022/06/06 12:52:01;;;;;;;1.35;1.30;;;23.40;78.30;;;;;;4957993;28;92473;-73
2022/06/06 12:54:30;;;;;;;;;;;23.70;76.80;;;;;;4956631;28;95585;-73
2022/06/06 12:57:04;;;;;;;1.88;1.67;;;23.60;76.00;;;;;;4956664;28;94986;-75
2022/06/06 13:00:01;;;;;;;2.95;1.58;;;23.90;76.00;;;;;;4966248;28;92802;-75
2022/06/06 13:02:53;;;;;;;2.40;1.38;;;24.00;75.40;;;;;;4969641;28;93126;-75
2022/06/06 13:05:58;;;;;;;2.05;1.08;;;24.10;74.80;;;;;;4958210;28;94038;-73
2022/06/06 13:08:50;;;;;;;1.95;1.13;;;24.10;74.90;;;;;;4943939;28;96265;-72
2022/06/06 13:11:50;;;;;;;1.35;1.23;;;24.20;74.70;;;;;;4952710;28;93330;-71
2022/06/06 13:14:35;;;;;;;1.92;1.10;;;24.10;73.40;;;;;;4943826;28;93132;-72
2022/06/06 13:17:16;;;;;;;1.35;1.20;;;24.00;74.40;;;;;;4952518;28;95745;-73
2022/06/06 13:19:59;;;;;;;2.63;1.20;;;24.20;75.10;;;;;;4948321;28;94271;-70
2022/06/06 13:22:26;;;;;;;;;;;24.30;74.20;;;;;;4940185;28;95937;-70
2022/06/06 13:25:03;;;;;;;1.98;1.60;;;24.20;74.30;;;;;;4949913;28;92666;-73
2022/06/06 13:27:59;;;;;;;3.13;1.40;;;24.40;74.90;;;;;;4956503;28;93210;-74
2022/06/06 13:30:26;;;;;;;2.17;1.38;;;24.70;73.50;;;;;;4944401;28;93504;-71
2022/06/06 13:33:25;;;;;;;1.95;1.48;;;24.70;73.90;;;;;;4941819;28;93176;-74
2022/06/06 13:36:01;;;;;;;1.85;1.50;;;24.80;72.90;;;;;;4950082;28;92558;-70
2022/06/06 13:38:39;;;;;;;1.52;1.40;;;24.70;72.70;;;;;;4939596;28;94200;-70
2022/06/06 13:41:37;;;;;;;1.70;1.45;;;24.60;72.70;;;;;;4945370;28;94207;-70
2022/06/06 13:44:20;;;;;;;1.63;1.52;;;24.60;73.10;;;;;;4942205;28;92494;-73
2022/06/06 13:47:31;;;;;;;1.67;1.58;;;24.50;73.50;;;;;;4952085;28;93736;-71
2022/06/06 13:50:25;;;;;;;2.47;1.20;;;24.50;72.60;;;;;;4853239;28;98578;-73
2022/06/06 13:53:01;;;;;;;1.85;1.33;;;24.40;71.40;;;;;;4936435;28;95039;-73
2022/06/06 13:55:34;;;;;;;1.92;1.08;;;24.20;71.30;;;;;;4938285;28;93353;-74
2022/06/06 13:58:20;;;;;;;1.00;1.00;;;24.20;71.60;;;;;;4936172;28;92633;-73
2022/06/06 14:01:18;;;;;;;1.50;1.40;;;24.20;71.60;;;;;;4936688;28;93328;-75
2022/06/06 14:04:06;;;;;;;3.85;1.30;;;24.20;72.10;;;;;;4949841;28;97352;-72
2022/06/06 14:07:03;;;;;;;1.83;1.30;;;24.00;72.10;;;;;;4941135;28;93342;-71
2022/06/06 14:09:43;;;;;;;1.63;1.00;;;23.80;72.80;;;;;;4936866;28;92514;-73
2022/06/06 14:12:35;;;;;;;1.45;1.30;;;23.60;74.00;;;;;;4938764;28;95738;-73
2022/06/06 14:15:12;;;;;;;2.25;1.40;;;23.50;75.30;;;;;;4946708;28;96436;-72
2022/06/06 14:17:46;;;;;;;3.25;1.65;;;23.30;77.70;;;;;;4951733;28;95500;-71
2022/06/06 14:20:25;;;;;;;2.25;1.80;;;23.10;79.40;;;;;;4953232;28;92392;-71